KUOX/UOX METAR and TAF weather

Enter ICAO airport designator
Station Type Date Time Source
KUOX METAR 2021/01/20 22:35 UTC NOAA

KUOX 202235Z AUTO 00000KT 8SM FEW060 BKN085 09/M02 A3026 RMK AO2 PWINO


Station Type Date Time Source
KUOX Decoded METAR 2021/01/20 22:35 UTC NOAA

Oxford, University-Oxford Airport, MS, United States (KUOX) 34-23-04N 089-32-08W
Jan 20, 2021 - 05:35 PM EST / 2021.01.20 2235 UTC
Wind: Calm:0
Visibility: 8 mile(s):0
Sky conditions: mostly cloudy
Temperature: 48 F (9 C)
Dew Point: 28 F (-2 C)
Relative Humidity: 45%
Pressure (altimeter): 30.26 in. Hg (1024 hPa)
ob: KUOX 202235Z AUTO 00000KT 8SM FEW060 BKN085 09/M02 A3026 RMK AO2 PWINO
cycle: 22

Station Type Date Time Source
KUOX TAF UTC NOAA

Error!

Example: see airport list